createdAt,value
2023-02-08T00:02:03.701Z,-0.70
2023-02-08T00:04:30.422Z,-0.70
2023-02-08T00:06:57.221Z,-0.70
2023-02-08T00:09:24.123Z,-0.70
2023-02-08T00:11:50.946Z,-0.50
2023-02-08T00:14:17.727Z,-0.50
2023-02-08T00:16:44.740Z,-0.30
2023-02-08T00:19:11.493Z,-0.20
2023-02-08T00:21:38.313Z,-0.30
2023-02-08T00:24:05.241Z,-0.20
2023-02-08T00:26:32.364Z,-0.30
2023-02-08T00:28:59.282Z,-0.40
2023-02-08T00:31:29.325Z,-0.30
2023-02-08T00:33:56.208Z,-0.30
2023-02-08T00:36:23.052Z,-0.20
2023-02-08T00:38:49.756Z,-0.30
2023-02-08T00:41:16.481Z,-0.30
2023-02-08T00:43:43.264Z,-0.20
2023-02-08T00:46:10.028Z,-0.20
2023-02-08T00:48:36.895Z,-0.10
2023-02-08T00:51:09.462Z,-0.10
2023-02-08T00:53:41.063Z,0.00
2023-02-08T00:56:09.242Z,0.10
2023-02-08T00:58:36.410Z,0.10
2023-02-08T01:01:04.789Z,0.20
2023-02-08T01:03:34.177Z,0.20
2023-02-08T01:06:06.547Z,0.20
2023-02-08T01:08:33.694Z,0.20
2023-02-08T01:11:10.066Z,0.20
2023-02-08T01:13:38.395Z,0.20
2023-02-08T01:16:18.389Z,0.20
2023-02-08T01:18:47.687Z,0.20
2023-02-08T01:21:17.978Z,0.20
2023-02-08T01:23:45.923Z,0.10
2023-02-08T01:26:14.117Z,0.20
2023-02-08T01:28:41.570Z,0.10
2023-02-08T01:31:10.924Z,0.10
2023-02-08T01:33:38.154Z,0.00
2023-02-08T01:36:05.669Z,0.10
2023-02-08T01:38:32.975Z,0.10
2023-02-08T01:41:00.250Z,0.00
2023-02-08T01:43:30.052Z,-0.10
2023-02-08T01:45:57.295Z,-0.20
2023-02-08T01:48:29.649Z,-0.20
2023-02-08T01:51:05.394Z,-0.10
2023-02-08T01:53:34.562Z,-0.10
2023-02-08T01:56:05.575Z,-0.10
2023-02-08T01:58:36.513Z,-0.20
2023-02-08T02:01:04.300Z,-0.20
2023-02-08T02:03:31.245Z,-0.10
2023-02-08T02:06:05.770Z,-0.20
2023-02-08T02:08:32.620Z,-0.30
2023-02-08T02:10:59.512Z,-0.30
2023-02-08T02:13:27.352Z,-0.30
2023-02-08T02:15:55.097Z,-0.30
2023-02-08T02:18:28.367Z,-0.20
2023-02-08T02:21:16.784Z,-0.40
2023-02-08T02:24:17.918Z,-0.50
2023-02-08T02:27:14.581Z,-0.50
2023-02-08T02:30:15.364Z,-0.40
2023-02-08T02:33:13.026Z,-0.50
2023-02-08T02:36:09.146Z,-0.50
2023-02-08T02:38:58.186Z,-0.60
2023-02-08T02:42:08.687Z,-0.60
2023-02-08T02:44:57.067Z,-0.60
2023-02-08T02:47:42.404Z,-0.30
2023-02-08T02:50:22.399Z,-0.30
2023-02-08T02:53:02.826Z,-0.40
2023-02-08T02:55:36.052Z,-0.30
2023-02-08T02:58:05.378Z,-0.40
2023-02-08T03:00:33.989Z,-0.40
2023-02-08T03:03:00.802Z,-0.40
2023-02-08T03:05:29.096Z,-0.40
2023-02-08T03:08:24.517Z,-0.40
2023-02-08T03:11:05.105Z,-0.40
2023-02-08T03:13:56.648Z,-0.50
2023-02-08T03:16:35.999Z,-0.60
2023-02-08T03:19:08.528Z,-0.50
2023-02-08T03:21:51.026Z,-0.40
2023-02-08T03:24:40.304Z,-0.40
2023-02-08T03:27:16.146Z,-0.40
2023-02-08T03:30:01.028Z,-0.40
2023-02-08T03:32:43.777Z,-0.50
2023-02-08T03:35:20.913Z,-0.60
2023-02-08T03:37:54.017Z,-0.50
2023-02-08T03:40:30.085Z,-0.50
2023-02-08T03:43:01.178Z,-0.50
2023-02-08T03:45:40.591Z,-0.50
2023-02-08T03:48:09.753Z,-0.50
2023-02-08T03:50:40.004Z,-0.50
2023-02-08T03:53:08.786Z,-0.50
2023-02-08T03:55:38.896Z,-0.60
2023-02-08T03:58:16.535Z,-0.50
2023-02-08T04:00:52.044Z,-0.50
2023-02-08T04:03:27.793Z,-0.60
2023-02-08T04:05:55.581Z,-0.60
2023-02-08T04:08:22.574Z,-0.60
2023-02-08T04:10:49.512Z,-0.60
2023-02-08T04:13:16.377Z,-0.70
2023-02-08T04:15:44.494Z,-0.70
2023-02-08T04:18:11.667Z,-0.60
2023-02-08T04:20:38.644Z,-0.70
2023-02-08T04:23:05.535Z,-0.70
2023-02-08T04:25:32.438Z,-0.80
2023-02-08T04:28:00.006Z,-0.70
2023-02-08T04:30:27.263Z,-0.70
2023-02-08T04:32:54.099Z,-0.90
2023-02-08T04:35:20.818Z,-0.90
2023-02-08T04:37:48.195Z,-0.90
2023-02-08T04:40:15.069Z,-0.80
2023-02-08T04:42:41.825Z,-0.90
2023-02-08T04:45:09.279Z,-1.10
2023-02-08T04:47:36.054Z,-1.40
2023-02-08T04:50:03.300Z,-1.60
2023-02-08T04:52:30.145Z,-1.30
2023-02-08T04:54:57.001Z,-1.10
2023-02-08T04:57:23.782Z,-1.10
2023-02-08T04:59:50.561Z,-1.10
2023-02-08T05:02:17.329Z,-0.90
2023-02-08T05:04:44.266Z,-0.90
2023-02-08T05:07:11.017Z,-0.90
2023-02-08T05:09:37.813Z,-0.90
2023-02-08T05:12:04.853Z,-0.90
2023-02-08T05:14:31.776Z,-1.10
2023-02-08T05:16:58.532Z,-1.00
2023-02-08T05:19:25.322Z,-1.10
2023-02-08T05:21:52.097Z,-1.30
2023-02-08T05:24:18.895Z,-1.40
2023-02-08T05:26:45.635Z,-1.40
2023-02-08T05:29:12.484Z,-1.20
2023-02-08T05:31:39.288Z,-1.30
2023-02-08T05:34:06.234Z,-1.20
2023-02-08T05:36:33.198Z,-1.20
2023-02-08T05:39:02.796Z,-1.30
2023-02-08T05:41:29.536Z,-1.30
2023-02-08T05:43:56.364Z,-1.10
2023-02-08T05:46:23.280Z,-1.20
2023-02-08T05:48:50.012Z,-1.10
2023-02-08T05:51:16.815Z,-1.10
2023-02-08T05:53:44.147Z,-1.00
2023-02-08T05:56:10.943Z,-1.00
2023-02-08T05:58:37.988Z,-1.00
2023-02-08T06:01:12.918Z,-1.10
2023-02-08T06:03:40.542Z,-1.10
2023-02-08T06:06:07.798Z,-1.10
2023-02-08T06:08:34.560Z,-1.10
2023-02-08T06:11:01.292Z,-1.10
2023-02-08T06:13:29.289Z,-1.10
2023-02-08T06:15:56.382Z,-1.20
2023-02-08T06:18:23.368Z,-1.20
2023-02-08T06:20:53.818Z,-1.20
2023-02-08T06:23:21.427Z,-1.20
2023-02-08T06:25:48.161Z,-1.20
2023-02-08T06:28:15.123Z,-1.20
2023-02-08T06:30:42.097Z,-1.10
2023-02-08T06:33:09.152Z,-1.10
2023-02-08T06:35:35.907Z,-1.10
2023-02-08T06:38:02.695Z,-1.10
2023-02-08T06:40:29.430Z,-1.10
2023-02-08T06:42:56.135Z,-1.10
2023-02-08T06:45:22.861Z,-1.10
2023-02-08T06:47:49.578Z,-1.00
2023-02-08T06:50:16.403Z,-1.00
2023-02-08T06:52:43.145Z,-1.10
2023-02-08T06:55:09.900Z,-1.00
2023-02-08T06:57:36.655Z,-1.00
2023-02-08T07:00:05.072Z,-1.10
2023-02-08T07:02:32.400Z,-1.40
2023-02-08T07:04:59.372Z,-1.60
2023-02-08T07:07:26.187Z,-1.60
2023-02-08T07:09:52.995Z,-1.60
2023-02-08T07:12:20.323Z,-1.60
2023-02-08T07:14:47.048Z,-1.70
2023-02-08T07:17:14.286Z,-1.80
2023-02-08T07:19:41.027Z,-1.80
2023-02-08T07:22:10.871Z,-1.70
2023-02-08T07:24:39.642Z,-1.70
2023-02-08T07:27:08.252Z,-1.60
2023-02-08T07:29:35.830Z,-1.30
2023-02-08T07:32:04.141Z,-1.10
2023-02-08T07:34:37.243Z,-0.80
2023-02-08T07:37:04.693Z,-0.80
2023-02-08T07:39:31.550Z,-0.70
2023-02-08T07:41:59.042Z,-0.70
2023-02-08T07:44:25.903Z,-0.40
2023-02-08T07:46:52.963Z,-0.20
2023-02-08T07:49:19.801Z,0.20
2023-02-08T07:51:46.600Z,0.80
2023-02-08T07:54:13.373Z,1.10
2023-02-08T07:56:40.270Z,1.60
2023-02-08T07:59:07.005Z,1.90
2023-02-08T08:01:33.791Z,2.20
2023-02-08T08:04:00.609Z,2.40
2023-02-08T08:06:27.597Z,2.40
2023-02-08T08:08:54.397Z,2.20
2023-02-08T08:11:22.339Z,1.80
2023-02-08T08:13:49.599Z,1.40
2023-02-08T08:16:16.786Z,1.20
2023-02-08T08:18:43.653Z,1.10
2023-02-08T08:21:10.853Z,1.10
2023-02-08T08:23:38.040Z,1.40
2023-02-08T08:26:14.290Z,2.00
2023-02-08T08:28:42.266Z,2.30
2023-02-08T08:31:13.990Z,2.60
2023-02-08T08:33:44.579Z,2.90
2023-02-08T08:36:11.622Z,2.90
2023-02-08T08:38:41.917Z,2.40
2023-02-08T08:41:14.961Z,2.10
2023-02-08T08:43:42.053Z,1.90
2023-02-08T08:46:10.101Z,1.70
2023-02-08T08:48:38.839Z,1.60
2023-02-08T08:51:06.360Z,1.50
2023-02-08T08:53:33.675Z,1.60
2023-02-08T08:56:00.650Z,1.50
2023-02-08T08:58:27.523Z,1.50
2023-02-08T09:00:57.377Z,1.50
2023-02-08T09:03:24.406Z,1.50
2023-02-08T09:05:51.483Z,1.60
2023-02-08T09:08:18.776Z,1.60
2023-02-08T09:10:45.686Z,1.60
2023-02-08T09:13:19.263Z,1.60
2023-02-08T09:15:47.186Z,1.60
2023-02-08T09:18:14.341Z,1.70
2023-02-08T09:20:41.672Z,1.70
2023-02-08T09:23:08.644Z,1.70
2023-02-08T09:25:36.999Z,1.80
2023-02-08T09:28:04.688Z,1.80
2023-02-08T09:30:31.707Z,1.90
2023-02-08T09:32:58.451Z,1.90
2023-02-08T09:35:25.291Z,2.00
2023-02-08T09:37:57.838Z,2.00
2023-02-08T09:40:27.236Z,2.10
2023-02-08T09:43:27.356Z,2.20
2023-02-08T09:46:02.636Z,2.20
2023-02-08T09:48:37.255Z,2.30
2023-02-08T09:51:26.352Z,2.30
2023-02-08T09:54:08.151Z,2.30
2023-02-08T09:56:40.417Z,2.30
2023-02-08T09:59:16.658Z,2.40
2023-02-08T10:01:44.753Z,2.50
2023-02-08T10:04:33.132Z,2.50
2023-02-08T10:06:59.971Z,2.60
2023-02-08T10:09:27.661Z,2.60
2023-02-08T10:12:25.521Z,2.70
2023-02-08T10:15:00.881Z,2.70
2023-02-08T10:17:55.730Z,2.80
2023-02-08T10:20:44.057Z,2.80
2023-02-08T10:23:27.748Z,2.80
2023-02-08T10:26:10.010Z,2.90
2023-02-08T10:29:00.304Z,2.90
2023-02-08T10:31:54.939Z,3.00
2023-02-08T10:34:56.493Z,3.10
2023-02-08T10:37:35.482Z,3.20
2023-02-08T10:40:31.234Z,3.30
2023-02-08T10:43:40.330Z,3.30
2023-02-08T10:46:35.593Z,3.50
2023-02-08T10:49:28.445Z,3.50
2023-02-08T10:51:55.246Z,3.60
2023-02-08T10:54:22.051Z,3.60
2023-02-08T10:57:01.013Z,3.70
2023-02-08T10:59:36.909Z,3.70
2023-02-08T11:02:17.514Z,3.90
2023-02-08T11:05:08.373Z,3.90
2023-02-08T11:07:36.978Z,3.90
2023-02-08T11:10:19.123Z,4.00
2023-02-08T11:13:17.551Z,4.00
2023-02-08T11:15:52.630Z,4.10
2023-02-08T11:18:30.884Z,4.00
2023-02-08T11:21:04.230Z,4.10
2023-02-08T11:23:36.732Z,4.20
2023-02-08T11:26:24.048Z,4.30
2023-02-08T11:29:13.898Z,4.40
2023-02-08T11:31:59.330Z,4.50
2023-02-08T11:34:38.876Z,4.50
2023-02-08T11:37:15.161Z,4.50
2023-02-08T11:39:44.407Z,4.50
2023-02-08T11:42:35.051Z,4.50
2023-02-08T11:45:02.495Z,4.50
2023-02-08T11:47:32.451Z,4.50
2023-02-08T11:50:02.553Z,4.70
2023-02-08T11:52:36.958Z,4.80
2023-02-08T11:55:12.795Z,4.80
2023-02-08T11:58:05.799Z,4.90
2023-02-08T12:00:35.664Z,4.90
2023-02-08T12:03:19.876Z,5.00
2023-02-08T12:06:24.248Z,5.10
2023-02-08T12:09:09.623Z,5.10
2023-02-08T12:11:41.827Z,5.00
2023-02-08T12:14:35.169Z,5.00
2023-02-08T12:17:28.826Z,5.20
2023-02-08T12:20:13.150Z,5.20
2023-02-08T12:22:45.900Z,5.20
2023-02-08T12:25:22.169Z,5.20
2023-02-08T12:28:01.639Z,5.30
2023-02-08T12:30:37.264Z,5.30
2023-02-08T12:33:19.658Z,5.30
2023-02-08T12:36:12.825Z,5.40
2023-02-08T12:39:39.715Z,5.40
2023-02-08T12:42:09.242Z,5.40
2023-02-08T12:45:05.007Z,5.40
2023-02-08T12:48:03.792Z,5.50
2023-02-08T12:50:52.218Z,5.50
2023-02-08T12:53:31.035Z,5.50
2023-02-08T12:56:03.814Z,5.60
2023-02-08T12:58:38.676Z,5.70
2023-02-08T13:01:19.636Z,5.70
2023-02-08T13:04:00.653Z,5.70
2023-02-08T13:06:33.587Z,5.70
2023-02-08T13:09:17.766Z,5.70
2023-02-08T13:11:59.878Z,5.70
2023-02-08T13:14:46.684Z,5.80
2023-02-08T13:17:29.473Z,5.80
2023-02-08T13:20:05.085Z,5.80
2023-02-08T13:22:39.299Z,5.80
2023-02-08T13:25:26.397Z,5.90
2023-02-08T13:27:53.745Z,5.90
2023-02-08T13:30:22.139Z,5.90
2023-02-08T13:32:51.001Z,6.00
2023-02-08T13:35:24.030Z,6.00
2023-02-08T13:37:55.260Z,6.10
2023-02-08T13:40:29.473Z,6.00
2023-02-08T13:43:03.438Z,6.00
2023-02-08T13:45:31.817Z,5.90
2023-02-08T13:48:03.496Z,6.00
2023-02-08T13:50:42.817Z,6.00
2023-02-08T13:53:10.396Z,5.90
2023-02-08T13:55:51.621Z,5.90
2023-02-08T13:58:38.452Z,5.90
2023-02-08T14:01:21.936Z,5.90
2023-02-08T14:04:16.046Z,5.80
2023-02-08T14:07:00.746Z,5.80
2023-02-08T14:09:44.416Z,5.90
2023-02-08T14:12:58.579Z,5.80
2023-02-08T14:15:31.837Z,5.90
2023-02-08T14:18:00.684Z,5.90
2023-02-08T14:20:36.175Z,5.90
2023-02-08T14:23:07.019Z,5.90
2023-02-08T14:25:49.232Z,5.80
2023-02-08T14:28:46.136Z,5.80
2023-02-08T14:31:15.659Z,5.90
2023-02-08T14:33:50.401Z,5.90
2023-02-08T14:36:35.175Z,5.80
2023-02-08T14:39:26.313Z,5.90
2023-02-08T14:41:57.289Z,5.90
2023-02-08T14:44:39.456Z,5.90
2023-02-08T14:47:25.963Z,5.90
2023-02-08T14:50:17.575Z,5.90
2023-02-08T14:52:56.188Z,5.90
2023-02-08T14:55:30.209Z,5.90
2023-02-08T14:58:00.658Z,5.90
2023-02-08T15:00:33.274Z,5.90
2023-02-08T15:03:01.377Z,5.90
2023-02-08T15:05:39.090Z,5.90
2023-02-08T15:08:06.221Z,5.80
2023-02-08T15:10:35.172Z,5.70
2023-02-08T15:13:06.768Z,5.70
2023-02-08T15:15:42.775Z,5.70
2023-02-08T15:18:20.343Z,5.80
2023-02-08T15:21:16.591Z,5.80
2023-02-08T15:23:43.479Z,5.80
2023-02-08T15:26:22.605Z,5.80
2023-02-08T15:28:49.393Z,5.80
2023-02-08T15:31:19.137Z,5.90
2023-02-08T15:33:47.156Z,5.80
2023-02-08T15:36:26.388Z,5.80
2023-02-08T15:38:55.155Z,5.80
2023-02-08T15:41:29.203Z,5.70
2023-02-08T15:44:25.892Z,5.70
2023-02-08T15:49:35.654Z,5.60
2023-02-08T15:52:03.719Z,5.60
2023-02-08T15:54:30.869Z,5.70
2023-02-08T15:57:03.453Z,5.60
2023-02-08T15:59:33.669Z,5.60
2023-02-08T16:02:19.591Z,5.60
2023-02-08T16:04:47.426Z,5.40
2023-02-08T16:10:28.515Z,5.30
2023-02-08T16:12:58.790Z,5.20
2023-02-08T16:15:35.696Z,5.10
2023-02-08T16:18:02.609Z,5.00
2023-02-08T16:20:34.202Z,4.90
2023-02-08T16:23:22.957Z,4.90
2023-02-08T16:25:50.271Z,4.80
2023-02-08T16:28:28.948Z,4.60
2023-02-08T16:30:58.173Z,4.60
2023-02-08T16:33:25.691Z,4.40
2023-02-08T16:35:52.898Z,4.40
2023-02-08T16:38:23.976Z,4.40
2023-02-08T16:40:53.581Z,4.60
2023-02-08T16:43:26.383Z,4.60
2023-02-08T16:46:11.796Z,4.50
2023-02-08T16:48:43.267Z,4.10
2023-02-08T16:51:16.868Z,4.20
2023-02-08T16:53:44.052Z,4.00
2023-02-08T16:56:11.531Z,3.90
2023-02-08T16:58:38.950Z,3.80
2023-02-08T17:01:06.348Z,3.60
2023-02-08T17:03:33.178Z,3.40
2023-02-08T17:06:01.058Z,3.40
2023-02-08T17:08:28.006Z,3.30
2023-02-08T17:10:59.048Z,3.20
2023-02-08T17:13:29.358Z,3.40
2023-02-08T17:16:00.165Z,3.40
2023-02-08T17:18:27.198Z,3.60
2023-02-08T17:20:59.509Z,3.70
2023-02-08T17:23:26.671Z,3.70
2023-02-08T17:25:53.653Z,3.70
2023-02-08T17:28:21.204Z,3.70
2023-02-08T17:30:49.333Z,3.70
2023-02-08T17:33:19.607Z,3.70
2023-02-08T17:35:48.827Z,3.70
2023-02-08T17:38:16.112Z,3.70
2023-02-08T17:40:43.854Z,3.70
2023-02-08T17:43:11.881Z,3.70
2023-02-08T17:45:40.273Z,3.70
2023-02-08T17:48:07.315Z,3.70
2023-02-08T17:50:34.467Z,3.70
2023-02-08T17:53:01.419Z,3.70
2023-02-08T17:55:28.179Z,3.70
2023-02-08T17:57:54.986Z,3.70
2023-02-08T18:00:23.839Z,3.60
2023-02-08T18:02:53.685Z,3.40
2023-02-08T18:05:26.506Z,3.30
2023-02-08T18:07:53.934Z,3.20
2023-02-08T18:10:21.528Z,3.10
2023-02-08T18:12:48.366Z,2.80
2023-02-08T18:15:19.996Z,2.60
2023-02-08T18:17:46.937Z,2.40
2023-02-08T18:20:15.435Z,2.20
2023-02-08T18:22:43.533Z,2.10
2023-02-08T18:25:11.336Z,2.00
2023-02-08T18:27:38.221Z,1.90
2023-02-08T18:30:05.589Z,1.70
2023-02-08T18:32:32.399Z,1.70
2023-02-08T18:35:00.168Z,1.70
2023-02-08T18:37:27.975Z,1.60
2023-02-08T18:39:54.711Z,1.50
2023-02-08T18:42:21.467Z,1.40
2023-02-08T18:44:48.259Z,1.30
2023-02-08T18:47:15.053Z,1.30
2023-02-08T18:49:41.925Z,1.20
2023-02-08T18:52:13.720Z,1.30
2023-02-08T18:54:40.600Z,1.20
2023-02-08T18:57:10.749Z,1.20
2023-02-08T18:59:50.534Z,1.30
2023-02-08T19:02:21.539Z,1.30
2023-02-08T19:04:49.637Z,1.20
2023-02-08T19:07:16.739Z,1.10
2023-02-08T19:09:44.226Z,1.10
2023-02-08T19:12:15.272Z,1.00
2023-02-08T19:14:43.177Z,1.00
2023-02-08T19:17:11.413Z,0.90
2023-02-08T19:19:39.099Z,1.00
2023-02-08T19:22:05.827Z,1.00
2023-02-08T19:24:32.577Z,1.00
2023-02-08T19:26:59.374Z,1.10
2023-02-08T19:29:26.067Z,1.10
2023-02-08T19:31:52.939Z,1.10
2023-02-08T19:34:19.906Z,1.10
2023-02-08T19:36:52.295Z,1.10
2023-02-08T19:39:22.880Z,1.20
2023-02-08T19:41:50.179Z,1.10
2023-02-08T19:44:19.283Z,1.30
2023-02-08T19:46:51.117Z,1.40
2023-02-08T19:49:18.422Z,1.40
2023-02-08T19:51:45.274Z,1.50
2023-02-08T19:54:15.364Z,1.40
2023-02-08T19:56:42.250Z,1.30
2023-02-08T19:59:19.542Z,1.20
2023-02-08T20:01:47.510Z,1.20
2023-02-08T20:04:14.898Z,1.30
2023-02-08T20:06:42.864Z,1.30
2023-02-08T20:09:09.685Z,1.40
2023-02-08T20:11:51.243Z,1.40
2023-02-08T20:14:23.523Z,1.30
2023-02-08T20:16:50.415Z,1.40
2023-02-08T20:19:17.509Z,1.50
2023-02-08T20:21:45.407Z,1.50
2023-02-08T20:24:12.371Z,1.50
2023-02-08T20:26:41.862Z,1.50
2023-02-08T20:29:09.105Z,1.50
2023-02-08T20:31:38.125Z,1.50
2023-02-08T20:34:07.449Z,1.40
2023-02-08T20:36:40.782Z,1.30
2023-02-08T20:39:09.346Z,1.30
2023-02-08T20:41:38.304Z,1.40
2023-02-08T20:44:05.155Z,1.40
2023-02-08T20:46:34.728Z,1.20
2023-02-08T20:49:03.492Z,1.20
2023-02-08T20:51:30.593Z,1.10
2023-02-08T20:53:58.721Z,1.10
2023-02-08T20:56:32.470Z,1.00
2023-02-08T20:59:07.006Z,1.00
2023-02-08T21:01:35.804Z,1.10
2023-02-08T21:04:03.534Z,1.20
2023-02-08T21:06:36.288Z,1.20
2023-02-08T21:09:07.272Z,1.30
2023-02-08T21:11:34.845Z,1.30
2023-02-08T21:14:02.943Z,1.30
2023-02-08T21:16:30.261Z,1.30
2023-02-08T21:18:57.300Z,1.30
2023-02-08T21:21:25.154Z,1.30
2023-02-08T21:23:52.465Z,1.30
2023-02-08T21:26:20.891Z,1.20
2023-02-08T21:28:48.245Z,1.20
2023-02-08T21:31:19.665Z,1.20
2023-02-08T21:33:46.581Z,1.10
2023-02-08T21:36:16.496Z,1.00
2023-02-08T21:38:43.745Z,1.00
2023-02-08T21:41:22.913Z,1.00
2023-02-08T21:43:50.897Z,0.90
2023-02-08T21:46:18.484Z,0.80
2023-02-08T21:49:04.602Z,0.70
2023-02-08T21:51:50.873Z,0.50
2023-02-08T21:54:38.440Z,0.40
2023-02-08T21:57:09.115Z,0.40
2023-02-08T21:59:37.384Z,0.30
2023-02-08T22:02:11.823Z,0.20
2023-02-08T22:04:38.578Z,0.20
2023-02-08T22:07:05.439Z,0.20
2023-02-08T22:09:32.256Z,0.10
2023-02-08T22:11:59.271Z,0.00
2023-02-08T22:14:26.125Z,-0.10
2023-02-08T22:16:53.131Z,-0.10
2023-02-08T22:19:20.022Z,-0.10
2023-02-08T22:21:46.821Z,-0.10
2023-02-08T22:24:13.583Z,0.00
2023-02-08T22:26:40.352Z,-0.10
2023-02-08T22:29:07.064Z,-0.10
2023-02-08T22:31:33.934Z,-0.20
2023-02-08T22:34:00.864Z,-0.20
2023-02-08T22:36:27.824Z,-0.20
2023-02-08T22:38:54.678Z,-0.30
2023-02-08T22:41:21.477Z,-0.30
2023-02-08T22:43:49.071Z,-0.40
2023-02-08T22:46:16.141Z,-0.40
2023-02-08T22:48:43.022Z,-0.40
2023-02-08T22:51:13.166Z,-0.50
2023-02-08T22:53:40.407Z,-0.50
2023-02-08T22:56:07.755Z,-0.50
2023-02-08T22:58:34.641Z,-0.40
2023-02-08T23:01:01.532Z,-0.30
2023-02-08T23:03:28.363Z,-0.30
2023-02-08T23:05:55.154Z,-0.30
2023-02-08T23:08:22.619Z,-0.20
2023-02-08T23:10:49.958Z,-0.20
2023-02-08T23:13:16.908Z,-0.20
2023-02-08T23:15:44.955Z,-0.20
2023-02-08T23:18:12.294Z,-0.30
2023-02-08T23:20:40.809Z,-0.30
2023-02-08T23:23:08.113Z,-0.30
2023-02-08T23:25:35.140Z,-0.20
2023-02-08T23:28:01.966Z,-0.30
2023-02-08T23:30:28.748Z,-0.40
2023-02-08T23:32:55.682Z,-0.40
2023-02-08T23:35:22.473Z,-0.40
2023-02-08T23:37:49.236Z,-0.30
2023-02-08T23:40:16.524Z,-0.40
2023-02-08T23:42:43.228Z,-0.40
2023-02-08T23:45:10.131Z,-0.50
2023-02-08T23:47:39.454Z,-0.50
2023-02-08T23:50:07.972Z,-0.60
2023-02-08T23:52:35.560Z,-0.60
2023-02-08T23:55:02.875Z,-0.60
2023-02-08T23:57:37.629Z,-0.70
